CYQM

Greater Moncton International Airport

Moncton, New Brunswick, Canada
METAR CYQM 271100Z 21004KT 15SM VCFG FEW004 FEW012 FEW250 04/04 A3030 RMK SF1CF1CI1 SF TR CF TR VIS W 2 SLP265
Observed Flight Rules
May-27 @ 11:00 UTC (an hour ago) Visual Flight Rules
Wind Visibility Clouds Conditions
210° at 4 knots 15 miles
  • Few at 400' AGL
  • Few at 1,200' AGL
  • Few at 25,000' AGL
  • Area Fog
Temperatures Readings
Current 4°C / 39°F
Dewpoint 4°C / 39°F
Humidity 100%
Altimeter 30.3" Hg
Pressure 1026.5 hPa
Elevation 71
METAR CYQM 271100Z 21004KT 15SM VCFG FEW004 FEW012 FEW250 04/04 A3030 RMK SF1CF1CI1 SF TR CF TR VIS W 2 SLP265
Observed Flight Rules
May-27 @ 11:00 UTC
(an hour ago)
VFR
Wind Visibility
210° at 4 knots 15 miles
Clouds
  • Few at 400' AGL
  • Few at 1,200' AGL
  • Few at 25,000' AGL
Conditions
  • Area Fog
Temperature Dewpoint
4°C / 39°F 4°C / 39°F
Humidity Altimeter Pressure
100% 30.3" Hg 1026.5 hPa